createdAt,value
2023-03-20T00:01:56.536Z,4.79
2023-03-20T00:04:24.148Z,4.82
2023-03-20T00:06:51.791Z,4.72
2023-03-20T00:09:19.593Z,4.82
2023-03-20T00:11:49.368Z,4.86
2023-03-20T00:14:20.576Z,4.80
2023-03-20T00:16:49.503Z,4.67
2023-03-20T00:19:19.187Z,4.66
2023-03-20T00:21:47.842Z,4.69
2023-03-20T00:24:16.065Z,4.67
2023-03-20T00:26:45.078Z,4.68
2023-03-20T00:29:19.491Z,4.66
2023-03-20T00:31:47.192Z,4.68
2023-03-20T00:34:17.294Z,4.68
2023-03-20T00:36:44.946Z,4.74
2023-03-20T00:39:12.609Z,4.77
2023-03-20T00:41:44.022Z,4.77
2023-03-20T00:44:25.528Z,4.80
2023-03-20T00:46:55.595Z,4.86
2023-03-20T00:49:26.254Z,4.88
2023-03-20T00:51:53.837Z,4.87
2023-03-20T00:54:21.463Z,4.74
2023-03-20T00:56:56.136Z,4.66
2023-03-20T00:59:28.888Z,4.61
2023-03-20T01:01:56.776Z,4.62
2023-03-20T01:04:24.577Z,4.70
2023-03-20T01:06:52.689Z,4.70
2023-03-20T01:09:20.411Z,4.76
2023-03-20T01:11:49.428Z,4.74
2023-03-20T01:14:17.891Z,4.72
2023-03-20T01:16:46.986Z,4.71
2023-03-20T01:19:16.987Z,4.76
2023-03-20T01:21:44.777Z,4.74
2023-03-20T01:24:12.428Z,4.72
2023-03-20T01:26:42.145Z,4.69
2023-03-20T01:29:17.979Z,4.53
2023-03-20T01:31:47.343Z,4.57
2023-03-20T01:34:16.320Z,4.48
2023-03-20T01:36:46.740Z,4.54
2023-03-20T01:39:14.430Z,4.47
2023-03-20T01:41:42.321Z,4.51
2023-03-20T01:44:19.287Z,4.49
2023-03-20T01:46:48.495Z,4.57
2023-03-20T01:49:49.331Z,4.59
2023-03-20T01:52:16.985Z,4.64
2023-03-20T01:54:44.593Z,4.64
2023-03-20T01:57:15.050Z,4.69
2023-03-20T01:59:44.726Z,4.55
2023-03-20T02:02:15.488Z,4.53
2023-03-20T02:04:45.965Z,4.59
2023-03-20T02:07:15.583Z,4.68
2023-03-20T02:09:43.506Z,4.74
2023-03-20T02:12:11.605Z,4.71
2023-03-20T02:14:39.308Z,4.55
2023-03-20T02:17:08.079Z,4.46
2023-03-20T02:19:48.385Z,4.51
2023-03-20T02:22:30.585Z,4.49
2023-03-20T02:25:31.264Z,4.44
2023-03-20T02:28:21.069Z,4.27
2023-03-20T02:31:04.694Z,4.19
2023-03-20T02:34:05.998Z,4.02
2023-03-20T02:36:55.934Z,3.78
2023-03-20T02:39:33.341Z,3.76
2023-03-20T02:42:05.265Z,3.65
2023-03-20T02:44:36.411Z,3.66
2023-03-20T02:47:06.577Z,3.57
2023-03-20T02:49:47.208Z,3.44
2023-03-20T02:52:18.614Z,3.42
2023-03-20T02:54:54.735Z,3.44
2023-03-20T02:57:25.595Z,3.50
2023-03-20T02:59:57.937Z,3.46
2023-03-20T03:02:30.222Z,3.45
2023-03-20T03:05:01.596Z,3.45
2023-03-20T03:07:31.874Z,3.40
2023-03-20T03:10:03.285Z,3.37
2023-03-20T03:12:33.479Z,3.28
2023-03-20T03:15:02.736Z,3.25
2023-03-20T03:17:35.379Z,3.21
2023-03-20T03:20:06.845Z,3.31
2023-03-20T03:22:36.306Z,3.22
2023-03-20T03:25:06.589Z,3.20
2023-03-20T03:27:37.518Z,3.17
2023-03-20T03:30:08.308Z,3.13
2023-03-20T03:32:38.376Z,3.18
2023-03-20T03:35:07.539Z,3.27
2023-03-20T03:37:42.506Z,3.35
2023-03-20T03:40:19.737Z,3.41
2023-03-20T03:42:54.060Z,3.53
2023-03-20T03:45:29.273Z,3.54
2023-03-20T03:47:58.339Z,3.58
2023-03-20T03:50:27.750Z,3.62
2023-03-20T03:52:59.701Z,3.64
2023-03-20T03:55:31.164Z,3.66
2023-03-20T03:58:01.756Z,3.54
2023-03-20T04:00:29.834Z,3.32
2023-03-20T04:02:59.346Z,3.33
2023-03-20T04:05:31.421Z,3.46
2023-03-20T04:08:03.506Z,3.48
2023-03-20T04:10:32.498Z,3.60
2023-03-20T04:13:00.345Z,3.59
2023-03-20T04:15:29.041Z,3.65
2023-03-20T04:17:56.737Z,3.67
2023-03-20T04:20:24.460Z,3.72
2023-03-20T04:22:52.423Z,3.72
2023-03-20T04:25:21.713Z,3.91
2023-03-20T04:27:50.759Z,3.97
2023-03-20T04:30:18.989Z,3.95
2023-03-20T04:32:46.696Z,3.89
2023-03-20T04:35:14.490Z,3.78
2023-03-20T04:37:42.128Z,3.53
2023-03-20T04:40:11.197Z,3.52
2023-03-20T04:42:38.915Z,3.66
2023-03-20T04:45:09.820Z,3.78
2023-03-20T04:47:37.421Z,3.83
2023-03-20T04:50:05.937Z,3.82
2023-03-20T04:52:33.596Z,3.83
2023-03-20T04:55:01.212Z,3.70
2023-03-20T04:57:28.796Z,3.76
2023-03-20T04:59:56.388Z,3.86
2023-03-20T05:02:25.385Z,3.98
2023-03-20T05:04:52.963Z,4.07
2023-03-20T05:07:20.640Z,4.00
2023-03-20T05:09:48.630Z,3.87
2023-03-20T05:12:16.437Z,3.96
2023-03-20T05:14:44.250Z,3.96
2023-03-20T05:17:11.943Z,4.00
2023-03-20T05:19:40.899Z,3.83
2023-03-20T05:22:08.624Z,3.80
2023-03-20T05:24:36.384Z,3.90
2023-03-20T05:27:04.157Z,4.02
2023-03-20T05:29:31.954Z,4.12
2023-03-20T05:31:59.715Z,4.18
2023-03-20T05:34:27.770Z,4.26
2023-03-20T05:36:56.785Z,4.29
2023-03-20T05:39:24.406Z,4.26
2023-03-20T05:41:52.009Z,4.31
2023-03-20T05:44:19.627Z,4.30
2023-03-20T05:46:47.208Z,4.35
2023-03-20T05:49:15.433Z,4.41
2023-03-20T05:51:43.088Z,4.49
2023-03-20T05:54:12.084Z,4.38
2023-03-20T05:56:39.675Z,4.25
2023-03-20T05:59:07.335Z,4.11
2023-03-20T06:01:34.916Z,4.13
2023-03-20T06:04:03.229Z,3.98
2023-03-20T06:06:30.871Z,4.00
2023-03-20T06:08:58.469Z,4.11
2023-03-20T06:11:27.491Z,4.26
2023-03-20T06:13:55.868Z,4.37
2023-03-20T06:16:23.497Z,4.46
2023-03-20T06:18:51.114Z,4.61
2023-03-20T06:21:19.169Z,4.62
2023-03-20T06:23:46.840Z,4.72
2023-03-20T06:26:14.473Z,4.95
2023-03-20T06:28:43.491Z,4.95
2023-03-20T06:31:11.275Z,5.00
2023-03-20T06:33:39.522Z,5.10
2023-03-20T06:36:07.823Z,4.90
2023-03-20T06:38:35.694Z,4.85
2023-03-20T06:41:04.865Z,4.90
2023-03-20T06:43:32.550Z,5.16
2023-03-20T06:46:01.645Z,5.36
2023-03-20T06:48:29.446Z,5.50
2023-03-20T06:50:57.266Z,5.60
2023-03-20T06:53:25.115Z,5.46
2023-03-20T06:55:52.697Z,5.70
2023-03-20T06:58:20.841Z,5.78
2023-03-20T07:00:48.460Z,5.75
2023-03-20T07:03:17.513Z,5.96
2023-03-20T07:05:45.846Z,6.06
2023-03-20T07:08:16.101Z,6.13
2023-03-20T07:10:43.714Z,6.47
2023-03-20T07:13:12.215Z,6.55
2023-03-20T07:15:43.867Z,6.65
2023-03-20T07:18:19.981Z,6.77
2023-03-20T07:20:47.921Z,6.92
2023-03-20T07:23:15.486Z,6.83
2023-03-20T07:25:43.410Z,6.91
2023-03-20T07:28:11.120Z,6.95
2023-03-20T07:30:38.726Z,6.98
2023-03-20T07:33:06.471Z,7.03
2023-03-20T07:35:35.945Z,7.17
2023-03-20T07:38:04.103Z,7.27
2023-03-20T07:40:31.948Z,6.86
2023-03-20T07:42:59.647Z,6.87
2023-03-20T07:45:27.244Z,7.01
2023-03-20T07:47:54.879Z,7.12
2023-03-20T07:50:22.541Z,7.22
2023-03-20T07:52:52.414Z,7.12
2023-03-20T07:55:20.103Z,7.36
2023-03-20T07:57:49.215Z,7.46
2023-03-20T08:00:18.404Z,7.60
2023-03-20T08:02:46.268Z,7.66
2023-03-20T08:05:13.912Z,7.78
2023-03-20T08:07:41.845Z,7.84
2023-03-20T08:10:12.009Z,7.71
2023-03-20T08:12:39.629Z,7.70
2023-03-20T08:15:07.944Z,7.81
2023-03-20T08:17:35.906Z,7.88
2023-03-20T08:20:03.609Z,8.11
2023-03-20T08:22:31.200Z,8.31
2023-03-20T08:24:58.827Z,8.55
2023-03-20T08:27:27.771Z,8.73
2023-03-20T08:29:55.599Z,8.82
2023-03-20T08:32:23.234Z,8.98
2023-03-20T08:34:50.931Z,8.97
2023-03-20T08:37:18.568Z,9.37
2023-03-20T08:39:47.888Z,9.29
2023-03-20T08:42:15.678Z,9.48
2023-03-20T08:44:45.096Z,9.66
2023-03-20T08:47:12.743Z,9.78
2023-03-20T08:49:40.615Z,9.97
2023-03-20T08:52:08.202Z,10.13
2023-03-20T08:54:35.851Z,9.94
2023-03-20T08:57:03.436Z,9.89
2023-03-20T08:59:31.400Z,9.95
2023-03-20T09:02:00.416Z,10.12
2023-03-20T09:04:28.095Z,10.13
2023-03-20T09:06:56.399Z,10.25
2023-03-20T09:09:29.288Z,10.74
2023-03-20T09:11:57.808Z,10.56
2023-03-20T09:14:25.829Z,10.81
2023-03-20T09:16:53.930Z,10.75
2023-03-20T09:19:22.902Z,10.76
2023-03-20T09:21:50.773Z,10.80
2023-03-20T09:24:18.362Z,10.59
2023-03-20T09:26:46.129Z,10.39
2023-03-20T09:29:13.746Z,10.52
2023-03-20T09:31:41.421Z,10.74
2023-03-20T09:34:09.015Z,10.77
2023-03-20T09:36:38.026Z,10.83
2023-03-20T09:39:05.998Z,10.88
2023-03-20T09:41:45.876Z,10.60
2023-03-20T09:44:45.972Z,11.00
2023-03-20T09:47:21.140Z,11.13
2023-03-20T09:49:56.720Z,11.06
2023-03-20T09:52:28.640Z,10.95
2023-03-20T09:54:58.942Z,10.86
2023-03-20T09:57:29.705Z,10.66
2023-03-20T09:59:59.671Z,10.96
2023-03-20T10:02:37.908Z,10.80
2023-03-20T10:05:13.854Z,11.03
2023-03-20T10:07:43.030Z,11.55
2023-03-20T10:10:13.305Z,11.41
2023-03-20T10:12:54.381Z,11.17
2023-03-20T10:15:36.585Z,11.37
2023-03-20T10:18:10.661Z,11.21
2023-03-20T10:20:44.760Z,11.37
2023-03-20T10:23:20.856Z,11.62
2023-03-20T10:25:52.249Z,11.52
2023-03-20T10:28:23.989Z,11.80
2023-03-20T10:31:01.236Z,11.55
2023-03-20T10:33:38.471Z,11.54
2023-03-20T10:36:14.861Z,11.29
2023-03-20T10:38:49.774Z,11.11
2023-03-20T10:41:19.346Z,11.32
2023-03-20T10:43:48.909Z,11.72
2023-03-20T10:46:19.819Z,11.67
2023-03-20T10:48:50.495Z,11.44
2023-03-20T10:51:20.044Z,11.51
2023-03-20T10:53:51.156Z,11.62
2023-03-20T10:56:27.229Z,11.81
2023-03-20T10:58:59.012Z,11.60
2023-03-20T11:01:26.665Z,11.49
2023-03-20T11:03:56.379Z,11.54
2023-03-20T11:06:27.832Z,11.68
2023-03-20T11:08:58.319Z,11.78
2023-03-20T11:11:28.060Z,12.02
2023-03-20T11:13:57.026Z,11.86
2023-03-20T11:16:26.264Z,11.91
2023-03-20T11:18:55.096Z,12.28
2023-03-20T11:21:24.652Z,12.55
2023-03-20T11:23:52.689Z,12.52
2023-03-20T11:26:31.563Z,12.54
2023-03-20T11:29:00.653Z,12.28
2023-03-20T11:31:33.021Z,12.25
2023-03-20T11:34:12.441Z,12.30
2023-03-20T11:36:41.305Z,12.70
2023-03-20T11:39:14.539Z,12.52
2023-03-20T11:41:52.145Z,12.34
2023-03-20T11:44:24.789Z,12.30
2023-03-20T11:46:57.818Z,12.36
2023-03-20T11:49:27.743Z,12.49
2023-03-20T11:51:57.752Z,12.57
2023-03-20T11:54:26.112Z,12.83
2023-03-20T11:56:57.044Z,12.66
2023-03-20T11:59:27.783Z,12.37
2023-03-20T12:01:56.604Z,12.25
2023-03-20T12:04:28.822Z,12.43
2023-03-20T12:06:58.436Z,12.39
2023-03-20T12:09:39.554Z,12.31
2023-03-20T12:12:17.534Z,12.35
2023-03-20T12:14:51.230Z,12.29
2023-03-20T12:17:31.222Z,12.48
2023-03-20T12:20:03.619Z,12.22
2023-03-20T12:22:35.882Z,12.04
2023-03-20T12:25:09.689Z,12.07
2023-03-20T12:27:41.407Z,12.14
2023-03-20T12:30:15.518Z,12.26
2023-03-20T12:32:45.965Z,12.42
2023-03-20T12:35:17.063Z,12.63
2023-03-20T12:37:44.749Z,12.87
2023-03-20T12:40:16.134Z,12.97
2023-03-20T12:42:54.885Z,12.55
2023-03-20T12:45:24.077Z,12.50
2023-03-20T12:48:16.825Z,12.92
2023-03-20T12:50:47.124Z,13.07
2023-03-20T12:53:27.763Z,13.31
2023-03-20T12:56:02.626Z,13.74
2023-03-20T12:58:38.939Z,13.87
2023-03-20T13:01:11.340Z,13.85
2023-03-20T13:04:05.544Z,13.53
2023-03-20T13:06:40.733Z,13.37
2023-03-20T13:09:23.181Z,13.38
2023-03-20T13:11:56.336Z,13.22
2023-03-20T13:14:29.268Z,13.16
2023-03-20T13:17:00.428Z,12.79
2023-03-20T13:19:32.286Z,12.84
2023-03-20T13:22:06.009Z,12.95
2023-03-20T13:24:42.482Z,12.82
2023-03-20T13:27:22.004Z,12.53
2023-03-20T13:29:54.835Z,12.98
2023-03-20T13:32:29.310Z,13.74
2023-03-20T13:35:06.627Z,14.12
2023-03-20T13:37:36.832Z,14.16
2023-03-20T13:40:12.174Z,14.06
2023-03-20T13:42:44.078Z,13.52
2023-03-20T13:45:23.097Z,12.91
2023-03-20T13:47:51.177Z,12.54
2023-03-20T13:50:28.826Z,12.71
2023-03-20T13:53:03.776Z,12.53
2023-03-20T13:55:35.467Z,12.57
2023-03-20T13:58:19.193Z,12.37
2023-03-20T14:00:52.411Z,12.54
2023-03-20T14:03:24.037Z,12.66
2023-03-20T14:05:51.662Z,12.68
2023-03-20T14:08:33.924Z,12.81
2023-03-20T14:11:14.343Z,12.80
2023-03-20T14:13:45.821Z,12.49
2023-03-20T14:16:16.820Z,12.15
2023-03-20T14:18:45.628Z,12.04
2023-03-20T14:21:14.746Z,12.17
2023-03-20T14:23:47.367Z,11.92
2023-03-20T14:26:21.907Z,11.80
2023-03-20T14:28:59.982Z,11.79
2023-03-20T14:31:37.737Z,11.83
2023-03-20T14:34:15.468Z,11.85
2023-03-20T14:36:51.862Z,11.85
2023-03-20T14:39:45.720Z,11.98
2023-03-20T14:42:27.948Z,11.93
2023-03-20T14:45:10.242Z,11.96
2023-03-20T14:47:45.945Z,11.85
2023-03-20T14:50:17.055Z,11.88
2023-03-20T14:52:55.117Z,12.16
2023-03-20T14:55:35.408Z,12.26
2023-03-20T14:58:04.946Z,12.20
2023-03-20T15:00:36.314Z,12.30
2023-03-20T15:03:09.204Z,12.25
2023-03-20T15:05:38.253Z,11.71
2023-03-20T15:08:08.619Z,11.71
2023-03-20T15:10:39.864Z,11.64
2023-03-20T15:13:08.952Z,11.44
2023-03-20T15:15:36.644Z,11.34
2023-03-20T15:18:08.058Z,11.36
2023-03-20T15:20:37.380Z,11.48
2023-03-20T15:23:06.209Z,11.41
2023-03-20T15:25:39.678Z,11.41
2023-03-20T15:28:07.705Z,11.49
2023-03-20T15:30:39.297Z,11.38
2023-03-20T15:33:12.374Z,11.43
2023-03-20T15:35:40.639Z,11.36
2023-03-20T15:38:08.622Z,11.29
2023-03-20T15:40:50.616Z,11.37
2023-03-20T15:43:20.648Z,11.27
2023-03-20T15:45:48.505Z,11.02
2023-03-20T15:48:18.974Z,11.07
2023-03-20T15:50:49.483Z,11.13
2023-03-20T15:53:19.682Z,11.10
2023-03-20T15:55:51.738Z,11.02
2023-03-20T15:58:20.113Z,10.93
2023-03-20T16:00:48.664Z,10.83
2023-03-20T16:03:19.418Z,10.81
2023-03-20T16:05:49.069Z,10.76
2023-03-20T16:08:23.483Z,10.75
2023-03-20T16:10:56.821Z,10.67
2023-03-20T16:13:24.651Z,10.63
2023-03-20T16:15:53.203Z,10.57
2023-03-20T16:18:22.680Z,10.52
2023-03-20T16:20:52.592Z,10.45
2023-03-20T16:23:33.431Z,10.46
2023-03-20T16:26:01.540Z,10.40
2023-03-20T16:28:29.559Z,10.34
2023-03-20T16:31:09.200Z,10.25
2023-03-20T16:33:39.545Z,10.25
2023-03-20T16:36:08.221Z,10.14
2023-03-20T16:38:37.901Z,10.18
2023-03-20T16:41:25.663Z,10.15
2023-03-20T16:43:53.411Z,10.10
2023-03-20T16:46:23.127Z,9.99
2023-03-20T16:48:53.402Z,10.08
2023-03-20T16:51:24.332Z,10.04
2023-03-20T16:53:56.263Z,9.94
2023-03-20T16:56:27.195Z,9.98
2023-03-20T16:58:56.914Z,9.93
2023-03-20T17:01:26.450Z,9.89
2023-03-20T17:03:57.137Z,9.85
2023-03-20T17:06:37.003Z,9.80
2023-03-20T17:09:18.813Z,9.80
2023-03-20T17:11:49.783Z,9.77
2023-03-20T17:14:17.446Z,9.76
2023-03-20T17:16:45.418Z,9.75
2023-03-20T17:19:17.531Z,9.72
2023-03-20T17:21:45.908Z,9.67
2023-03-20T17:24:14.856Z,9.63
2023-03-20T17:26:44.217Z,9.48
2023-03-20T17:29:12.781Z,9.47
2023-03-20T17:31:40.703Z,9.35
2023-03-20T17:34:08.281Z,9.15
2023-03-20T17:36:38.452Z,9.19
2023-03-20T17:39:06.493Z,9.11
2023-03-20T17:41:34.136Z,9.06
2023-03-20T17:44:01.725Z,8.95
2023-03-20T17:46:31.358Z,8.77
2023-03-20T17:49:00.480Z,8.73
2023-03-20T17:51:28.091Z,8.72
2023-03-20T17:53:58.011Z,8.60
2023-03-20T17:56:29.901Z,8.53
2023-03-20T17:58:57.894Z,8.40
2023-03-20T18:01:26.478Z,8.39
2023-03-20T18:03:54.360Z,8.39
2023-03-20T18:06:24.972Z,8.39
2023-03-20T18:08:52.577Z,8.45
2023-03-20T18:11:21.800Z,8.60
2023-03-20T18:13:49.375Z,8.61
2023-03-20T18:16:18.739Z,8.46
2023-03-20T18:18:46.667Z,8.57
2023-03-20T18:21:16.734Z,8.48
2023-03-20T18:23:44.961Z,8.49
2023-03-20T18:26:19.594Z,8.42
2023-03-20T18:28:48.984Z,8.34
2023-03-20T18:31:19.323Z,8.28
2023-03-20T18:33:48.460Z,8.19
2023-03-20T18:36:18.213Z,8.10
2023-03-20T18:38:45.862Z,8.00
2023-03-20T18:41:13.981Z,7.87
2023-03-20T18:43:42.235Z,7.88
2023-03-20T18:46:14.992Z,7.81
2023-03-20T18:48:43.071Z,7.78
2023-03-20T18:51:11.104Z,7.70
2023-03-20T18:53:38.827Z,7.63
2023-03-20T18:56:08.272Z,7.60
2023-03-20T18:58:35.896Z,7.50
2023-03-20T19:01:03.505Z,7.42
2023-03-20T19:03:39.142Z,7.38
2023-03-20T19:06:09.759Z,7.34
2023-03-20T19:08:38.768Z,7.27
2023-03-20T19:11:10.061Z,7.21
2023-03-20T19:13:37.882Z,7.22
2023-03-20T19:16:07.119Z,7.22
2023-03-20T19:18:38.833Z,7.18
2023-03-20T19:21:07.807Z,7.08
2023-03-20T19:23:35.586Z,7.09
2023-03-20T19:26:03.334Z,6.97
2023-03-20T19:28:40.702Z,6.94
2023-03-20T19:31:10.330Z,6.85
2023-03-20T19:33:40.821Z,6.78
2023-03-20T19:36:09.848Z,6.72
2023-03-20T19:38:38.139Z,6.58
2023-03-20T19:41:06.557Z,6.50
2023-03-20T19:43:42.568Z,6.46
2023-03-20T19:46:36.270Z,6.38
2023-03-20T19:49:17.794Z,6.36
2023-03-20T19:51:46.528Z,6.30
2023-03-20T19:54:14.119Z,6.23
2023-03-20T19:56:41.857Z,6.20
2023-03-20T19:59:09.479Z,6.07
2023-03-20T20:01:37.198Z,6.07
2023-03-20T20:04:04.912Z,5.97
2023-03-20T20:06:33.932Z,5.98
2023-03-20T20:09:01.874Z,5.83
2023-03-20T20:11:29.890Z,5.78
2023-03-20T20:14:07.648Z,5.78
2023-03-20T20:16:36.217Z,5.79
2023-03-20T20:19:04.214Z,5.78
2023-03-20T20:24:22.539Z,5.71
2023-03-20T20:26:55.359Z,5.83
2023-03-20T20:29:28.145Z,5.83
2023-03-20T20:31:55.847Z,5.78
2023-03-20T20:40:00.441Z,5.74
2023-03-20T20:42:28.186Z,5.69
2023-03-20T20:44:55.781Z,5.79
2023-03-20T20:47:23.517Z,5.72
2023-03-20T20:49:51.217Z,5.72
2023-03-20T20:52:18.932Z,5.78
2023-03-20T20:54:46.564Z,5.86
2023-03-20T20:57:15.585Z,5.89
2023-03-20T20:59:43.398Z,5.88
2023-03-20T21:02:11.993Z,5.99
2023-03-20T21:04:40.187Z,6.06
2023-03-20T21:07:10.849Z,6.07
2023-03-20T21:09:39.108Z,6.07
2023-03-20T21:12:08.197Z,6.09
2023-03-20T21:14:37.477Z,6.11
2023-03-20T21:17:05.936Z,6.10
2023-03-20T21:19:35.528Z,6.16
2023-03-20T21:22:03.142Z,6.10
2023-03-20T21:24:33.794Z,5.96
2023-03-20T21:27:02.781Z,6.01
2023-03-20T21:29:30.716Z,5.94
2023-03-20T21:31:59.804Z,5.93
2023-03-20T21:34:28.957Z,5.94
2023-03-20T21:36:57.896Z,5.92
2023-03-20T21:39:28.630Z,5.93
2023-03-20T21:41:56.579Z,5.88
2023-03-20T21:45:08.254Z,5.86
2023-03-20T21:59:07.321Z,5.54
2023-03-20T22:01:49.403Z,5.54
2023-03-20T22:04:54.776Z,5.54
2023-03-20T22:07:28.728Z,5.58
2023-03-20T22:10:18.702Z,5.65
2023-03-20T22:18:42.466Z,5.60
2023-03-20T22:24:21.113Z,5.43
2023-03-20T22:29:52.471Z,5.23
2023-03-20T22:35:43.935Z,5.11
2023-03-20T22:41:18.334Z,4.99
2023-03-20T22:46:16.936Z,4.92
2023-03-20T22:48:47.071Z,4.86
2023-03-20T22:51:16.267Z,4.83
2023-03-20T22:53:45.472Z,4.80
2023-03-20T22:56:13.093Z,4.83
2023-03-20T22:58:41.183Z,4.77
2023-03-20T23:01:09.835Z,4.91
2023-03-20T23:03:41.824Z,5.02
2023-03-20T23:06:10.949Z,5.06
2023-03-20T23:08:48.002Z,5.03
2023-03-20T23:11:20.000Z,5.19
2023-03-20T23:13:47.979Z,5.29
2023-03-20T23:16:15.669Z,5.38
2023-03-20T23:18:43.583Z,5.37
2023-03-20T23:21:11.983Z,5.40
2023-03-20T23:23:40.092Z,5.38
2023-03-20T23:26:09.516Z,5.52
2023-03-20T23:28:40.410Z,5.45
2023-03-20T23:31:11.366Z,5.57
2023-03-20T23:33:39.723Z,5.60
2023-03-20T23:36:21.846Z,5.63
2023-03-20T23:38:55.969Z,5.66
2023-03-20T23:41:49.346Z,5.68
2023-03-20T23:44:12.601Z,5.68
2023-03-20T23:46:40.210Z,5.71
2023-03-20T23:49:07.809Z,5.65
2023-03-20T23:51:35.404Z,5.63
2023-03-20T23:54:03.040Z,5.59
2023-03-20T23:56:30.759Z,5.54
2023-03-20T23:59:05.461Z,5.40
